Flight Track Log - Related Links

Times and Time Zones

All times are in EDT time to prevent confusion due to time zone crossing. See the KAP1981 flight status page for this flight to view local times or setup timezone preferences in your user account.

Time Position Orientation Groundspeed Altitude Reporting Facility
EDT Latitude Longitude Course Direction KTS MPH feet Rate Location/Type
Tue 11:02:18 18.2833 -63.8667 270° West 190 219 10,600  Level San Juan Center
Tue 11:03:18 18.2833 -63.9333 270° West 190 219 10,600  Level San Juan Center
Tue 11:04:18 18.2833 -63.9833 270° West 190 219 10,600  Level San Juan Center
Tue 11:05:19 18.2833 -64.0500 270° West 200 230 10,600  Level San Juan Center
Tue 11:06:19 18.2833 -64.1000 270° West 190 219 10,600  Level San Juan Center
Tue 11:07:19 18.3000 -64.1500 289° West 190 219 10,600  Level San Juan Center
Tue 11:08:19 18.3000 -64.2167 270° West 190 219 10,600  Level San Juan Center
Tue 11:09:20 18.3000 -64.2667 270° West 200 230 10,600  Level San Juan Center
Tue 11:10:20 18.3000 -64.3333 270° West 190 219 10,600  Level San Juan Center
Tue 11:11:20 18.3000 -64.3833 270° West 200 230 10,600  Level San Juan Center
Tue 11:12:21 18.3167 -64.4500 285° West 190 219 10,600  Level San Juan Center
Tue 11:13:21 18.3167 -64.5000 270° West 190 219 10,600  Level San Juan Center
Tue 11:14:21 18.3167 -64.5500 270° West 190 219 10,600  Level San Juan Center
Tue 11:15:22 18.3333 -64.6167 285° West 190 219 10,600  Level San Juan Center
Tue 11:16:22 18.3333 -64.6667 270° West 180 207 10,600  Level San Juan Center
Tue 11:17:22 18.3333 -64.7167 270° West 180 207 10,600  Level San Juan Center
Tue 11:18:23 18.3500 -64.7833 285° West 180 207 10,600  Level San Juan Center
Tue 11:19:23 18.3500 -64.8333 270° West 190 219 10,600 -50 Level San Juan Center
Tue 11:20:23 18.3500 -64.8833 270° West 180 207 10,500 -100 Descending San Juan Center
Tue 11:22:00 18.3568 -64.9704 275° West  Level FlightAware Approximate
Tue 11:29:00 18.3859 -65.3475 275° West  Level FlightAware Approximate
Tue 11:30:00 18.3900 -65.4014 275° West  Level FlightAware Approximate
Tue 11:31:00 18.3941 -65.4552 275° West  Level FlightAware Approximate
Tue 11:32:00 18.3982 -65.5091 275° West  Level FlightAware Approximate
Tue 11:33:00 18.4000 -65.5631 270° West  Level FlightAware Approximate
Tue 11:34:00 18.4000 -65.6171 274° West  Level FlightAware Approximate
Tue 11:35:00 18.4032 -65.6711 274° West  Level FlightAware Approximate
Tue 11:36:00 18.4064 -65.7250 274° West  Level FlightAware Approximate
Tue 11:37:00 18.4096 -65.7790 274° West  Level FlightAware Approximate
Tue 11:38:00 18.4128 -65.8329 274° West  Level FlightAware Approximate
Tue 11:39:00 18.4159 -65.8869 274° West  Level FlightAware Approximate
Tue 11:40:00 18.4333 -65.9334 270° West  Level FlightAware Approximate
Tue 11:41:00 18.4333 -65.9874 270° West  Level FlightAware Approximate
Tue 11:42:00 18.4333 -66.0000 270° West  Level FlightAware Approximate
Tue 11:43:00 18.4393 -66.0020 270° West  Level Estimated
Tue 11:44:00 18.4333 -66.0000 270° West  Level FlightAware Approximate
Tue 11:45:00 18.4393 -66.0020 270° West  Level Estimated
Tue 11:46:00 18.4333 -66.0000 270° West  Level FlightAware Approximate
Tue 11:47:00 18.4393 -66.0020 270° West  Level Estimated
Tue 11:48:00 18.4333 -66.0000 270° West  Level FlightAware Approximate
Tue 11:49:00 18.4393 -66.0020 270° West  Level Estimated
Tue 11:50:00 18.4333 -66.0000 270° West  Level FlightAware Approximate
Tue 11:51:00 18.4393 -66.0020 270° West  Level Estimated
Tue 11:52:00 18.4333 -66.0000 270° West  Level FlightAware Approximate
Tue 11:53:00 18.4393 -66.0020 270° West  Level Estimated
Tue 11:54:00 18.4333 -66.0000 270° West  Level FlightAware Approximate
Tue 11:55:00 18.4393 -66.0020 270° West  Level Estimated
Tue 11:56:00 18.4333 -66.0000 270° West  Level FlightAware Approximate
Tue 11:57:00 18.4393 -66.0020 270° West  Level Estimated
Tue 11:58:00 18.4333 -66.0000 270° West  Level FlightAware Approximate
Tue 11:59:00 18.4393 -66.0020 270° West  Level Estimated
Tue 12:00:00 18.4333 -66.0000 270° West  Level FlightAware Approximate
Tue 12:01:00 18.4393 -66.0020 270° West  Level Estimated
Tue 12:02:00 18.4333 -66.0000 270° West  Level FlightAware Approximate
Tue 12:03:00 18.4393 -66.0020 270° West  Level Estimated
Tue 12:04:00 18.4333 -66.0000 270° West  Level FlightAware Approximate
Tue 12:05:00 18.4393 -66.0020 270° West  Level Estimated
Tue 12:06:00 18.4333 -66.0000 270° West  Level FlightAware Approximate
Tue 12:07:00 18.4393 -66.0020 270° West  Level Estimated
Tue 12:08:00 18.4333 -66.0000 270° West  Level FlightAware Approximate
Tue 12:09:00 18.4393 -66.0020 270° West  Level Estimated
Tue 12:10:00 18.4333 -66.0000 270° West  Level FlightAware Approximate
Tue 12:11:00 18.4393 -66.0020 270° West  Level Estimated
Tue 12:12:00 18.4333 -66.0000 270° West  Level FlightAware Approximate
Tue 12:13:00 18.4393 -66.0020 270° West  Level Estimated

Login

Don't have an account? Register now (free) for customized features, flight alerts, and more!